Time;durP1;ratioP1;P1;durP2;ratioP2;P2;SDS_P1;SDS_P2;PMS_P1;PMS_P2;Temp;Humidity;BMP_temperature;BMP_pressure;BME280_temperature;BME280_humidity;BME280_pressure;Samples;Min_cycle;Max_cycle;Signal;HPM_P1;HPM_P2
2023/06/08 00:00:58;;;;;;;1.88;1.50;;;;;;;;;;20608889;28;20295;-82
2023/06/08 00:11:00;;;;;;;2.10;1.38;;;;;;;;;;20566157;28;20237;-82
2023/06/08 00:21:06;;;;;;;2.30;1.52;;;;;;;;;;20548438;28;20271;-84
2023/06/08 00:31:08;;;;;;;2.10;1.50;;;;;;;;;;20546269;28;20242;-82
2023/06/08 00:41:09;;;;;;;2.05;1.60;;;;;;;;;;20568740;28;20671;-83
2023/06/08 00:51:12;;;;;;;2.42;1.40;;;;;;;;;;20580653;28;20649;-84
2023/06/08 01:01:17;;;;;;;2.17;1.67;;;23.30;99.90;;;;;;20564102;28;20255;-82
2023/06/08 01:11:31;;;;;;;2.00;1.50;;;;;;;;;;20583847;28;20235;-83
2023/06/08 01:21:37;;;;;;;2.47;1.52;;;;;;;;;;20589088;28;20253;-83
2023/06/08 01:31:38;;;;;;;2.67;1.50;;;;;;;;;;20564456;28;20229;-81
2023/06/08 01:41:43;;;;;;;1.45;1.10;;;;;;;;;;20580750;28;20296;-82
2023/06/08 01:51:45;;;;;;;1.80;1.40;;;;;;;;;;20557699;28;20284;-82
2023/06/08 02:01:47;;;;;;;2.78;2.00;;;22.20;99.90;;;;;;20604196;28;20239;-82
2023/06/08 02:11:49;;;;;;;2.88;1.48;;;;;;;;;;20577467;28;20277;-82
2023/06/08 02:21:50;;;;;;;4.40;1.35;;;;;;;;;;20580705;28;20271;-82
2023/06/08 02:31:52;;;;;;;2.55;1.40;;;;;;;;;;20593487;28;20831;-82
2023/06/08 02:41:54;;;;;;;2.17;1.67;;;;;;;;;;20550827;28;20239;-82
2023/06/08 02:51:56;;;;;;;1.80;1.40;;;;;;;;;;20577549;28;20821;-82
2023/06/08 03:01:58;;;;;;;8.87;1.80;;;22.10;99.90;;;;;;20561359;28;20238;-83
2023/06/08 03:12:05;;;;;;;2.17;1.63;;;;;;;;;;20547808;28;20240;-83
2023/06/08 03:22:08;;;;;;;2.73;1.77;;;;;;;;;;20557136;28;20279;-81
2023/06/08 03:32:18;;;;;;;2.10;1.67;;;;;;;;;;20560231;28;20639;-81
2023/06/08 03:42:21;;;;;;;4.10;2.10;;;;;;;;;;20590417;28;20279;-83
2023/06/08 03:52:27;;;;;;;2.30;1.63;;;;;;;;;;20566240;28;20237;-82
2023/06/08 04:02:29;;;;;;;1.77;1.33;;;;;;;;;;20574922;28;20216;-83
2023/06/08 04:12:34;;;;;;;2.77;1.37;;;;;;;;;;20524613;28;20241;-83
2023/06/08 04:22:36;;;;;;;3.70;1.90;;;;;;;;;;20560101;28;20239;-83
2023/06/08 04:32:38;;;;;;;3.23;1.90;;;;;;;;;;20570929;28;20274;-83
2023/06/08 04:42:42;;;;;;;3.10;1.70;;;;;;;;;;20555296;28;20235;-82
2023/06/08 04:52:45;;;;;;;4.03;1.70;;;;;;;;;;20536372;28;20237;-84
2023/06/08 05:02:47;;;;;;;2.60;1.50;;;;;;;;;;20571359;28;20230;-84
2023/06/08 05:12:50;;;;;;;2.23;1.27;;;;;;;;;;20571838;28;20284;-84
2023/06/08 05:22:53;;;;;;;2.53;1.33;;;;;;;;;;20554044;28;20715;-84
2023/06/08 05:32:55;;;;;;;3.30;1.70;;;;;;;;;;20595087;28;20281;-83
2023/06/08 05:42:58;;;;;;;1.73;1.30;;;;;;;;;;20581459;28;20277;-83
2023/06/08 05:53:00;;;;;;;3.17;1.80;;;;;;;;;;20577579;28;20276;-83
2023/06/08 06:03:01;;;;;;;2.30;1.77;;;;;;;;;;20554549;28;20230;-84
2023/06/08 06:13:03;;;;;;;2.50;1.83;;;;;;;;;;20547085;28;20236;-83
2023/06/08 06:23:05;;;;;;;2.70;1.77;;;;;;;;;;20561125;28;20233;-82
2023/06/08 06:33:11;;;;;;;6.70;1.87;;;;;;;;;;20558855;28;20599;-82
2023/06/08 06:43:13;;;;;;;2.33;1.50;;;;;;;;;;20591623;28;20226;-83
2023/06/08 06:53:20;;;;;;;2.87;2.03;;;;;;;;;;20593833;28;20263;-83
2023/06/08 07:03:26;;;;;;;3.13;2.25;;;;;;;;;;20562687;28;20779;-83
2023/06/08 07:13:29;;;;;;;3.17;2.10;;;;;;;;;;20558268;28;20247;-83
2023/06/08 07:23:30;;;;;;;3.78;1.88;;;;;;;;;;20542281;28;20681;-83
2023/06/08 07:33:32;;;;;;;2.40;1.90;;;;;;;;;;20583400;28;20234;-83
2023/06/08 07:43:34;;;;;;;3.35;2.17;;;;;;;;;;20562720;28;20288;-82
2023/06/08 07:53:38;;;;;;;5.82;2.30;;;;;;;;;;20581443;28;20229;-83
2023/06/08 08:03:40;;;;;;;2.80;1.95;;;;;;;;;;20554842;28;20226;-82
2023/06/08 08:13:42;;;;;;;2.85;2.08;;;;;;;;;;20571488;28;20232;-81
2023/06/08 08:23:43;;;;;;;3.55;2.10;;;;;;;;;;20550528;28;20249;-81
2023/06/08 08:33:46;;;;;;;2.20;1.92;;;;;;;;;;20545065;28;20235;-81
2023/06/08 08:43:48;;;;;;;2.97;2.13;;;;;;;;;;20589182;28;20598;-81
2023/06/08 08:53:50;;;;;;;2.72;2.10;;;;;;;;;;20535006;28;20235;-81
2023/06/08 09:03:52;;;;;;;2.38;1.83;;;;;;;;;;20596831;28;20230;-81
2023/06/08 09:14:07;;;;;;;1.95;1.60;;;;;;;;;;20564911;28;20238;-81
2023/06/08 09:24:14;;;;;;;2.20;1.80;;;;;;;;;;20577899;28;20232;-81
2023/06/08 09:34:16;;;;;;;1.70;1.30;;;;;;;;;;20566016;28;20282;-82
2023/06/08 09:44:19;;;;;;;1.80;1.40;;;;;;;;;;20591977;28;20264;-82
2023/06/08 09:54:21;;;;;;;2.28;1.30;;;;;;;;;;20580477;28;20242;-82
2023/06/08 10:04:26;;;;;;;3.33;1.10;;;27.70;94.00;;;;;;20596616;28;20748;-82
2023/06/08 10:14:28;;;;;;;1.30;1.00;;;28.20;91.00;;;;;;20593327;28;20235;-80
2023/06/08 10:24:30;;;;;;;1.27;1.00;;;27.80;83.00;;;;;;20562508;28;20630;-79
2023/06/08 10:34:40;;;;;;;1.75;1.20;;;;;;;;;;20585978;28;20319;-79
2023/06/08 10:44:52;;;;;;;1.55;1.13;;;;;;;;;;20590100;28;20262;-80
2023/06/08 10:55:00;;;;;;;1.30;0.90;;;;;;;;;;20588635;28;20239;-80
2023/06/08 11:05:23;;;;;;;1.23;0.98;;;;;;;;;;20578110;28;20233;-80
2023/06/08 11:15:27;;;;;;;2.70;0.85;;;;;;;;;;20556441;28;20768;-80
2023/06/08 11:25:29;;;;;;;2.17;1.02;;;;;;;;;;20580361;28;20919;-80
2023/06/08 11:35:35;;;;;;;1.10;0.90;;;;;;;;;;20574193;28;20255;-80
2023/06/08 11:45:38;;;;;;;1.42;1.08;;;;;;;;;;20591169;28;20290;-80
2023/06/08 11:55:45;;;;;;;1.30;0.90;;;29.50;82.20;;;;;;20538925;28;20248;-80
2023/06/08 12:05:47;;;;;;;0.93;0.70;;;;;;;;;;20590321;28;20231;-82
2023/06/08 12:15:52;;;;;;;1.40;0.90;;;30.60;77.00;;;;;;20607064;28;20277;-84
2023/06/08 12:25:54;;;;;;;1.20;0.63;;;;;;;;;;20567401;28;20260;-84
2023/06/08 12:35:56;;;;;;;1.05;0.80;;;;;;;;;;20602128;28;20268;-84
2023/06/08 12:45:58;;;;;;;3.30;1.20;;;;;;;;;;20576276;28;20231;-83
2023/06/08 12:56:00;;;;;;;3.03;1.55;;;;;;;;;;20608277;28;20237;-82
2023/06/08 13:06:02;;;;;;;3.08;1.30;;;27.80;91.30;;;;;;20602517;28;20288;-84
2023/06/08 13:16:04;;;;;;;4.65;1.27;;;;;;;;;;20494588;23;20297;-74
2023/06/08 13:26:07;;;;;;;1.45;1.10;;;;;;;;;;20446285;29;20209;-70
2023/06/08 13:36:11;;;;;;;2.42;1.35;;;;;;;;;;20404949;29;20308;-71
2023/06/08 13:46:13;;;;;;;2.92;1.30;;;;;;;;;;20430337;29;20244;-70
2023/06/08 13:56:18;;;;;;;3.60;1.35;;;28.20;91.00;;;;;;20384688;28;20296;-70
2023/06/08 14:06:20;;;;;;;2.65;1.20;;;28.80;86.80;;;;;;20451803;23;20230;-81
2023/06/08 14:16:25;;;;;;;1.73;1.30;;;;;;;;;;20711183;28;20241;-81
2023/06/08 14:26:27;;;;;;;1.38;0.93;;;;;;;;;;20707191;28;20304;-82
2023/06/08 14:36:29;;;;;;;1.73;1.17;;;;;;;;;;20761302;28;20325;-82
2023/06/08 14:46:33;;;;;;;1.35;1.00;;;;;;;;;;20813588;28;20292;-82
2023/06/08 14:56:35;;;;;;;2.13;1.30;;;;;;;;;;20819851;28;20241;-82
2023/06/08 15:06:41;;;;;;;2.33;1.10;;;;;;;;;;20802453;28;20270;-82
2023/06/08 15:16:45;;;;;;;1.58;0.98;;;;;;;;;;20779265;28;21051;-82
2023/06/08 15:27:19;;;;;;;2.70;1.20;;;29.20;72.30;;;;;;20780170;28;20213;-82
2023/06/08 15:37:39;;;;;;;3.72;0.90;;;;;;;;;;20779803;28;20287;-83
2023/06/08 15:47:54;;;;;;;1.88;1.00;;;;;;;;;;20772829;28;20234;-84
2023/06/08 15:58:07;;;;;;;1.63;1.25;;;;;;;;;;20764398;28;20453;-81
2023/06/08 16:08:28;;;;;;;2.05;0.88;;;;;;;;;;20787252;28;20792;-83
2023/06/08 16:18:40;;;;;;;1.58;0.90;;;;;;;;;;20779815;28;20638;-83
2023/06/08 16:28:46;;;;;;;0.88;0.70;;;;;;;;;;20789891;28;20226;-83
2023/06/08 16:38:52;;;;;;;1.05;0.70;;;;;;;;;;20808166;28;20293;-82
2023/06/08 16:48:56;;;;;;;1.60;0.95;;;;;;;;;;20787746;28;20322;-81
2023/06/08 16:58:59;;;;;;;1.27;0.90;;;;;;;;;;20850623;28;20769;-81
2023/06/08 17:09:01;;;;;;;2.10;1.40;;;;;;;;;;20783415;28;20283;-81
2023/06/08 17:19:03;;;;;;;1.35;0.95;;;;;;;;;;20800457;28;20218;-80
2023/06/08 17:29:05;;;;;;;1.13;0.70;;;;;;;;;;20793137;28;20883;-80
2023/06/08 17:39:07;;;;;;;2.33;1.45;;;;;;;;;;20779509;28;20229;-80
2023/06/08 17:49:08;;;;;;;1.05;0.60;;;;;;;;;;20801800;28;20238;-81
2023/06/08 17:59:11;;;;;;;1.23;0.80;;;;;;;;;;20846161;28;20223;-82
2023/06/08 18:09:12;;;;;;;1.52;0.75;;;;;;;;;;20781935;28;20241;-82
2023/06/08 18:19:14;;;;;;;3.20;1.05;;;;;;;;;;20788246;28;20567;-81
2023/06/08 18:29:16;;;;;;;1.60;1.00;;;;;;;;;;20785550;28;20261;-82
2023/06/08 18:39:18;;;;;;;2.65;1.20;;;;;;;;;;20776024;28;20624;-81
2023/06/08 18:49:21;;;;;;;1.30;0.90;;;;;;;;;;20792737;28;20245;-81
2023/06/08 18:59:22;;;;;;;2.30;1.42;;;;;;;;;;20808155;28;20225;-81
2023/06/08 19:09:25;;;;;;;1.67;1.10;;;;;;;;;;20797136;28;20303;-81
2023/06/08 19:19:27;;;;;;;1.50;1.10;;;;;;;;;;20798783;28;20268;-81
2023/06/08 19:29:29;;;;;;;1.77;1.00;;;;;;;;;;20784462;28;20701;-81
2023/06/08 19:39:30;;;;;;;3.05;1.50;;;;;;;;;;20785595;28;20236;-80
2023/06/08 19:49:32;;;;;;;1.52;1.02;;;;;;;;;;20811502;28;20266;-83
2023/06/08 19:59:37;;;;;;;1.67;1.10;;;;;;;;;;20819544;28;20311;-82
2023/06/08 20:09:39;;;;;;;6.63;2.00;;;;;;;;;;20826251;28;20245;-82
2023/06/08 20:19:41;;;;;;;8.38;2.08;;;;;;;;;;20816233;28;20297;-83
2023/06/08 20:29:43;;;;;;;6.60;1.50;;;;;;;;;;20864619;28;20385;-81
2023/06/08 20:39:45;;;;;;;2.97;1.35;;;;;;;;;;20844728;28;20252;-81
2023/06/08 20:49:46;;;;;;;2.92;1.33;;;;;;;;;;20790321;28;20241;-81
2023/06/08 20:59:48;;;;;;;1.70;1.05;;;;;;;;;;20818932;28;20275;-81
2023/06/08 21:09:50;;;;;;;1.85;1.10;;;;;;;;;;20793293;28;20283;-83
2023/06/08 21:19:52;;;;;;;2.15;1.15;;;;;;;;;;20844904;28;20228;-80
2023/06/08 21:29:54;;;;;;;2.13;1.33;;;;;;;;;;20772001;28;20292;-80
2023/06/08 21:39:55;;;;;;;3.40;1.55;;;;;;;;;;20793531;28;20243;-81
2023/06/08 21:49:57;;;;;;;3.70;1.63;;;;;;;;;;20787991;28;20225;-79
2023/06/08 21:59:59;;;;;;;5.97;1.50;;;;;;;;;;20837391;28;20228;-80
2023/06/08 22:10:04;;;;;;;2.58;1.52;;;;;;;;;;20862792;28;20722;-80
2023/06/08 22:20:06;;;;;;;2.08;1.40;;;;;;;;;;20849570;28;20721;-81
2023/06/08 22:30:08;;;;;;;2.95;1.75;;;;;;;;;;20801639;28;20259;-79
2023/06/08 22:40:10;;;;;;;1.67;1.30;;;;;;;;;;20817345;28;20221;-79
2023/06/08 22:50:11;;;;;;;2.90;1.40;;;;;;;;;;20843271;28;20727;-79
2023/06/08 23:00:16;;;;;;;1.90;1.30;;;;;;;;;;20834386;28;20233;-80
2023/06/08 23:10:20;;;;;;;2.72;1.67;;;;;;;;;;20853205;28;20241;-82
2023/06/08 23:20:22;;;;;;;3.85;1.80;;;;;;;;;;20844792;28;20268;-81
2023/06/08 23:30:24;;;;;;;2.17;1.52;;;;;;;;;;20778255;28;20285;-82
2023/06/08 23:40:26;;;;;;;2.20;1.73;;;;;;;;;;20838060;28;20774;-79
2023/06/08 23:50:28;;;;;;;1.83;1.35;;;;;;;;;;20811371;28;20325;-79
